createdAt,value
2019-01-27T00:00:37.124Z,96.875
2019-01-27T00:01:46.680Z,96.77124
2019-01-27T00:02:56.196Z,96.77124
2019-01-27T00:04:05.708Z,96.875
2019-01-27T00:05:15.255Z,96.97876
2019-01-27T00:06:24.794Z,97.08252
2019-01-27T00:07:34.334Z,97.039795
2019-01-27T00:08:43.842Z,96.722412
2019-01-27T00:09:53.403Z,96.411133
2019-01-27T00:11:02.983Z,96.203613
2019-01-27T00:12:12.632Z,95.843506
2019-01-27T00:13:22.172Z,95.635986
2019-01-27T00:14:31.690Z,95.324707
2019-01-27T00:15:41.234Z,95.214844
2019-01-27T00:16:50.791Z,95.007324
2019-01-27T00:18:00.307Z,94.903564
2019-01-27T00:19:09.851Z,94.903564
2019-01-27T00:20:20.393Z,94.946289
2019-01-27T00:21:30.005Z,94.946289
2019-01-27T00:22:39.528Z,95.050049
2019-01-27T00:23:49.059Z,95.153809
2019-01-27T00:24:58.604Z,95.257568
2019-01-27T00:26:08.175Z,95.471191
2019-01-27T00:27:17.739Z,95.471191
2019-01-27T00:28:27.272Z,95.782471
2019-01-27T00:29:36.826Z,95.782471
2019-01-27T00:30:46.348Z,95.782471
2019-01-27T00:31:55.919Z,95.782471
2019-01-27T00:33:05.495Z,95.88623
2019-01-27T00:34:15.026Z,95.88623
2019-01-27T00:35:23.576Z,95.88623
2019-01-27T00:36:33.127Z,95.88623
2019-01-27T00:37:42.689Z,95.88623
2019-01-27T00:38:52.241Z,95.88623
2019-01-27T00:40:01.788Z,95.782471
2019-01-27T00:41:11.365Z,95.782471
2019-01-27T00:42:20.887Z,95.574951
2019-01-27T00:43:30.438Z,95.471191
2019-01-27T00:44:39.978Z,95.471191
2019-01-27T00:45:49.541Z,95.367432
2019-01-27T00:46:59.089Z,95.257568
2019-01-27T00:48:08.661Z,95.257568
2019-01-27T00:49:18.203Z,95.257568
2019-01-27T00:50:27.714Z,95.257568
2019-01-27T00:51:37.248Z,95.153809
2019-01-27T00:52:46.819Z,95.153809
2019-01-27T00:53:56.381Z,95.257568
2019-01-27T00:55:05.879Z,95.257568
2019-01-27T00:56:15.408Z,95.367432
2019-01-27T00:57:24.932Z,95.367432
2019-01-27T00:58:34.462Z,95.471191
2019-01-27T00:59:44.005Z,95.471191
2019-01-27T01:00:53.519Z,95.513916
2019-01-27T01:02:03.067Z,95.513916
2019-01-27T01:03:12.575Z,95.617676
2019-01-27T01:04:22.123Z,95.617676
2019-01-27T01:05:31.656Z,95.513916
2019-01-27T01:06:41.195Z,95.410156
2019-01-27T01:07:50.733Z,95.410156
2019-01-27T01:09:01.282Z,95.306396
2019-01-27T01:10:10.794Z,95.196533
2019-01-27T01:11:20.329Z,95.196533
2019-01-27T01:12:29.891Z,95.196533
2019-01-27T01:13:39.454Z,95.306396
2019-01-27T01:14:49.018Z,95.306396
2019-01-27T01:15:58.588Z,95.306396
2019-01-27T01:17:08.128Z,95.306396
2019-01-27T01:18:17.664Z,95.410156
2019-01-27T01:19:27.203Z,95.513916
2019-01-27T01:20:36.735Z,95.617676
2019-01-27T01:21:46.296Z,95.721436
2019-01-27T01:22:55.854Z,95.617676
2019-01-27T01:24:05.449Z,95.617676
2019-01-27T01:25:14.974Z,95.6604
2019-01-27T01:26:24.506Z,95.76416
2019-01-27T01:27:34.064Z,95.86792
2019-01-27T01:28:43.611Z,96.081543
2019-01-27T01:29:53.121Z,96.081543
2019-01-27T01:31:02.659Z,96.185303
2019-01-27T01:32:12.221Z,96.185303
2019-01-27T01:33:21.785Z,96.185303
2019-01-27T01:34:31.301Z,96.185303
2019-01-27T01:35:40.810Z,96.289062
2019-01-27T01:36:50.374Z,96.331787
2019-01-27T01:37:59.900Z,96.435547
2019-01-27T01:39:09.446Z,96.435547
2019-01-27T01:40:18.984Z,96.331787
2019-01-27T01:41:28.584Z,96.331787
2019-01-27T01:42:38.176Z,96.435547
2019-01-27T01:43:47.719Z,96.64917
2019-01-27T01:44:57.272Z,96.856689
2019-01-27T01:46:06.801Z,97.064209
2019-01-27T01:47:16.352Z,97.174072
2019-01-27T01:48:25.915Z,97.277832
2019-01-27T01:49:35.465Z,97.381592
2019-01-27T01:50:45.004Z,97.277832
2019-01-27T01:51:54.527Z,97.174072
2019-01-27T01:53:04.084Z,97.174072
2019-01-27T01:54:13.620Z,97.174072
2019-01-27T01:55:23.138Z,97.021484
2019-01-27T01:56:32.665Z,96.960449
2019-01-27T01:57:42.213Z,96.960449
2019-01-27T01:58:51.730Z,96.75293
2019-01-27T02:00:01.251Z,96.75293
2019-01-27T02:01:10.817Z,96.64917
2019-01-27T02:02:20.393Z,96.75293
2019-01-27T02:03:29.981Z,96.856689
2019-01-27T02:04:39.499Z,96.960449
2019-01-27T02:05:49.059Z,96.856689
2019-01-27T02:06:58.610Z,96.75293
2019-01-27T02:08:09.157Z,96.64917
2019-01-27T02:09:18.685Z,96.64917
2019-01-27T02:10:28.247Z,96.75293
2019-01-27T02:11:38.569Z,96.75293
2019-01-27T02:12:47.322Z,96.856689
2019-01-27T02:13:56.842Z,96.960449
2019-01-27T02:15:06.369Z,96.960449
2019-01-27T02:16:15.936Z,97.064209
2019-01-27T02:17:25.531Z,97.064209
2019-01-27T02:18:35.082Z,96.960449
2019-01-27T02:19:44.646Z,96.960449
2019-01-27T02:20:54.179Z,97.003174
2019-01-27T02:22:03.722Z,97.003174
2019-01-27T02:23:13.294Z,96.899414
2019-01-27T02:24:22.821Z,96.899414
2019-01-27T02:25:32.329Z,97.003174
2019-01-27T02:26:41.839Z,97.003174
2019-01-27T02:27:51.399Z,97.216797
2019-01-27T02:29:00.932Z,97.216797
2019-01-27T02:30:10.470Z,97.320557
2019-01-27T02:31:19.995Z,97.424316
2019-01-27T02:32:29.551Z,97.424316
2019-01-27T02:33:39.089Z,97.485352
2019-01-27T02:34:48.619Z,97.381592
2019-01-27T02:35:58.137Z,97.485352
2019-01-27T02:37:07.689Z,97.485352
2019-01-27T02:38:17.231Z,97.485352
2019-01-27T02:39:26.769Z,97.277832
2019-01-27T02:40:36.325Z,97.277832
2019-01-27T02:41:45.874Z,97.174072
2019-01-27T02:42:55.439Z,97.064209
2019-01-27T02:44:05.036Z,96.75293
2019-01-27T02:45:14.587Z,96.75293
2019-01-27T02:46:24.184Z,96.960449
2019-01-27T02:47:33.679Z,96.960449
2019-01-27T02:48:43.204Z,97.174072
2019-01-27T02:49:52.721Z,97.174072
2019-01-27T02:51:02.318Z,97.174072
2019-01-27T02:52:11.850Z,97.174072
2019-01-27T02:53:21.414Z,97.174072
2019-01-27T02:54:30.954Z,97.174072
2019-01-27T02:55:40.519Z,97.174072
2019-01-27T02:56:50.060Z,97.021484
2019-01-27T02:57:59.583Z,96.917725
2019-01-27T02:59:09.123Z,96.710205
2019-01-27T03:00:18.649Z,96.606445
2019-01-27T03:01:28.182Z,96.496582
2019-01-27T03:02:37.768Z,96.392822
2019-01-27T03:03:47.307Z,96.289062
2019-01-27T03:04:56.826Z,96.185303
2019-01-27T03:06:06.344Z,96.185303
2019-01-27T03:07:15.896Z,95.977783
2019-01-27T03:08:25.417Z,95.825195
2019-01-27T03:09:34.939Z,95.617676
2019-01-27T03:10:44.592Z,95.196533
2019-01-27T03:11:54.132Z,94.781494
2019-01-27T03:13:03.669Z,94.421387
2019-01-27T03:14:13.190Z,93.902588
2019-01-27T03:15:22.714Z,93.695068
2019-01-27T03:16:32.295Z,93.231201
2019-01-27T03:17:41.830Z,92.919922
2019-01-27T03:18:51.357Z,92.706299
2019-01-27T03:20:00.913Z,92.39502
2019-01-27T03:21:10.470Z,92.29126
2019-01-27T03:22:20.008Z,92.29126
2019-01-27T03:23:29.549Z,92.08374
2019-01-27T03:24:39.105Z,92.1875
2019-01-27T03:25:48.741Z,91.97998
2019-01-27T03:26:58.308Z,91.833496
2019-01-27T03:28:07.832Z,91.619873
2019-01-27T03:29:17.353Z,91.619873
2019-01-27T03:30:26.936Z,91.516113
2019-01-27T03:31:36.502Z,91.516113
2019-01-27T03:32:46.035Z,91.516113
2019-01-27T03:33:55.570Z,91.412354
2019-01-27T03:35:05.106Z,91.204834
2019-01-27T03:36:14.659Z,91.101074
2019-01-27T03:37:23.169Z,90.887451
2019-01-27T03:38:32.709Z,90.679932
2019-01-27T03:39:42.231Z,90.429688
2019-01-27T03:40:51.739Z,90.222168
2019-01-27T03:42:01.295Z,90.118408
2019-01-27T03:43:10.934Z,89.807129
2019-01-27T03:44:20.447Z,89.697266
2019-01-27T03:45:30.008Z,89.385986
2019-01-27T03:46:39.477Z,89.178467
2019-01-27T03:47:49.037Z,89.074707
2019-01-27T03:48:58.557Z,89.178467
2019-01-27T03:50:08.112Z,89.282227
2019-01-27T03:51:17.636Z,89.178467
2019-01-27T03:52:27.148Z,89.282227
2019-01-27T03:53:36.663Z,88.970947
2019-01-27T03:54:46.185Z,88.970947
2019-01-27T03:55:55.746Z,88.867188
2019-01-27T03:57:05.324Z,88.653564
2019-01-27T03:58:14.872Z,88.549805
2019-01-27T03:59:24.399Z,88.549805
2019-01-27T04:00:33.964Z,88.549805
2019-01-27T04:01:43.499Z,88.409424
2019-01-27T04:02:53.048Z,88.195801
2019-01-27T04:04:02.552Z,87.988281
2019-01-27T04:05:12.097Z,87.988281
2019-01-27T04:06:21.659Z,87.884521
2019-01-27T04:07:31.204Z,87.988281
2019-01-27T04:08:40.743Z,87.988281
2019-01-27T04:09:50.266Z,88.195801
2019-01-27T04:10:59.799Z,88.195801
2019-01-27T04:12:09.330Z,88.299561
2019-01-27T04:13:18.891Z,88.299561
2019-01-27T04:14:28.421Z,88.195801
2019-01-27T04:15:37.926Z,88.092041
2019-01-27T04:16:47.452Z,87.988281
2019-01-27T04:17:56.987Z,88.092041
2019-01-27T04:19:06.525Z,88.092041
2019-01-27T04:20:16.052Z,88.195801
2019-01-27T04:21:25.605Z,88.092041
2019-01-27T04:22:35.177Z,88.195801
2019-01-27T04:23:44.696Z,88.299561
2019-01-27T04:24:54.243Z,88.513184
2019-01-27T04:26:03.809Z,88.616943
2019-01-27T04:27:13.378Z,88.720703
2019-01-27T04:28:22.939Z,88.824463
2019-01-27T04:29:32.444Z,88.824463
2019-01-27T04:30:41.980Z,88.824463
2019-01-27T04:31:51.536Z,88.824463
2019-01-27T04:33:01.080Z,88.720703
2019-01-27T04:34:10.594Z,88.824463
2019-01-27T04:35:20.126Z,88.720703
2019-01-27T04:36:29.651Z,88.720703
2019-01-27T04:37:39.206Z,88.824463
2019-01-27T04:38:48.752Z,88.928223
2019-01-27T04:39:58.280Z,88.928223
2019-01-27T04:41:07.850Z,88.824463
2019-01-27T04:42:17.432Z,88.928223
2019-01-27T04:43:26.961Z,88.928223
2019-01-27T04:44:36.548Z,88.928223
2019-01-27T04:45:46.133Z,88.928223
2019-01-27T04:46:55.758Z,89.135742
2019-01-27T04:48:05.408Z,89.135742
2019-01-27T04:49:14.973Z,89.343262
2019-01-27T04:50:24.559Z,89.453125
2019-01-27T04:51:34.173Z,89.453125
2019-01-27T04:52:43.861Z,89.697266
2019-01-27T04:53:53.442Z,89.697266
2019-01-27T04:55:03.025Z,89.807129
2019-01-27T04:56:12.593Z,89.807129
2019-01-27T04:57:22.255Z,89.910889
2019-01-27T04:58:31.842Z,89.910889
2019-01-27T04:59:41.430Z,89.807129
2019-01-27T05:00:51.041Z,89.697266
2019-01-27T05:02:00.672Z,89.807129
2019-01-27T05:03:10.260Z,89.910889
2019-01-27T05:04:19.851Z,89.910889
2019-01-27T05:05:29.506Z,89.910889
2019-01-27T05:06:39.114Z,90.118408
2019-01-27T05:07:48.762Z,90.118408
2019-01-27T05:08:58.400Z,90.325928
2019-01-27T05:10:08.022Z,90.325928
2019-01-27T05:11:18.606Z,90.325928
2019-01-27T05:12:28.181Z,90.325928
2019-01-27T05:13:37.762Z,90.325928
2019-01-27T05:14:47.397Z,90.325928
2019-01-27T05:15:57.035Z,90.222168
2019-01-27T05:17:06.700Z,90.222168
2019-01-27T05:18:16.266Z,90.118408
2019-01-27T05:19:25.859Z,90.222168
2019-01-27T05:20:35.445Z,90.222168
2019-01-27T05:21:45.044Z,90.222168
2019-01-27T05:22:53.687Z,90.325928
2019-01-27T05:24:03.273Z,90.325928
2019-01-27T05:25:12.820Z,90.222168
2019-01-27T05:26:22.329Z,90.222168
2019-01-27T05:27:31.882Z,90.325928
2019-01-27T05:28:41.429Z,90.118408
2019-01-27T05:29:50.967Z,90.118408
2019-01-27T05:31:00.512Z,90.014648
2019-01-27T05:32:10.085Z,89.910889
2019-01-27T05:33:19.633Z,89.807129
2019-01-27T05:34:29.154Z,89.807129
2019-01-27T05:35:38.659Z,89.697266
2019-01-27T05:36:48.234Z,89.697266
2019-01-27T05:37:57.779Z,89.697266
2019-01-27T05:39:07.322Z,89.489746
2019-01-27T05:40:16.847Z,89.385986
2019-01-27T05:41:26.359Z,89.135742
2019-01-27T05:42:35.886Z,88.928223
2019-01-27T05:43:45.418Z,88.616943
2019-01-27T05:44:54.923Z,88.513184
2019-01-27T05:46:04.456Z,88.409424
2019-01-27T05:47:13.991Z,88.299561
2019-01-27T05:48:23.520Z,88.299561
2019-01-27T05:49:33.063Z,88.05542
2019-01-27T05:50:42.604Z,87.738037
2019-01-27T05:51:52.126Z,87.634277
2019-01-27T05:53:01.664Z,87.738037
2019-01-27T05:54:11.202Z,87.634277
2019-01-27T05:55:20.724Z,87.634277
2019-01-27T05:56:30.273Z,87.884521
2019-01-27T05:57:39.832Z,87.884521
2019-01-27T05:58:49.343Z,88.092041
2019-01-27T05:59:58.889Z,87.988281
2019-01-27T06:01:09.405Z,88.092041
2019-01-27T06:02:18.942Z,88.299561
2019-01-27T06:03:28.482Z,88.409424
2019-01-27T06:04:37.992Z,88.299561
2019-01-27T06:05:47.524Z,88.299561
2019-01-27T06:06:57.067Z,88.195801
2019-01-27T06:08:06.638Z,88.092041
2019-01-27T06:09:16.168Z,88.092041
2019-01-27T06:10:25.673Z,87.884521
2019-01-27T06:11:35.210Z,87.988281
2019-01-27T06:12:44.770Z,87.988281
2019-01-27T06:13:54.304Z,87.988281
2019-01-27T06:15:03.789Z,87.884521
2019-01-27T06:16:13.309Z,87.884521
2019-01-27T06:17:22.835Z,87.780762
2019-01-27T06:18:32.394Z,87.677002
2019-01-27T06:19:41.978Z,87.780762
2019-01-27T06:20:51.491Z,87.573242
2019-01-27T06:22:01.039Z,87.573242
2019-01-27T06:23:10.601Z,87.573242
2019-01-27T06:24:20.162Z,87.322998
2019-01-27T06:25:29.699Z,87.322998
2019-01-27T06:26:39.285Z,87.322998
2019-01-27T06:27:48.890Z,87.322998
2019-01-27T06:28:58.415Z,87.322998
2019-01-27T06:30:07.913Z,87.426758
2019-01-27T06:31:17.453Z,87.469482
2019-01-27T06:32:27.002Z,87.426758
2019-01-27T06:33:36.559Z,87.219238
2019-01-27T06:34:46.092Z,87.219238
2019-01-27T06:35:55.670Z,87.322998
2019-01-27T06:37:05.190Z,87.219238
2019-01-27T06:38:14.709Z,87.219238
2019-01-27T06:39:24.249Z,87.115479
2019-01-27T06:40:33.793Z,86.804199
2019-01-27T06:41:43.329Z,86.907959
2019-01-27T06:42:52.853Z,86.804199
2019-01-27T06:44:02.424Z,86.694336
2019-01-27T06:45:11.948Z,86.486816
2019-01-27T06:46:21.482Z,86.383057
2019-01-27T06:47:30.991Z,86.279297
2019-01-27T06:48:40.540Z,86.279297
2019-01-27T06:49:50.055Z,86.175537
2019-01-27T06:50:59.595Z,86.279297
2019-01-27T06:52:10.193Z,86.383057
2019-01-27T06:53:18.691Z,86.590576
2019-01-27T06:54:28.226Z,86.804199
2019-01-27T06:55:37.786Z,86.907959
2019-01-27T06:56:47.340Z,87.219238
2019-01-27T06:57:56.852Z,87.322998
2019-01-27T06:59:06.372Z,87.573242
2019-01-27T07:00:15.900Z,87.677002
2019-01-27T07:01:25.400Z,87.884521
2019-01-27T07:02:34.935Z,87.884521
2019-01-27T07:03:44.492Z,87.884521
2019-01-27T07:04:54.000Z,87.988281
2019-01-27T07:06:03.536Z,87.988281
2019-01-27T07:07:13.058Z,88.513184
2019-01-27T07:08:22.648Z,88.195801
2019-01-27T07:09:32.187Z,88.092041
2019-01-27T07:10:41.707Z,88.195801
2019-01-27T07:11:51.277Z,87.988281
2019-01-27T07:13:00.816Z,87.988281
2019-01-27T07:14:10.372Z,87.884521
2019-01-27T07:15:19.917Z,87.884521
2019-01-27T07:16:29.429Z,87.988281
2019-01-27T07:17:38.978Z,88.092041
2019-01-27T07:18:48.510Z,87.677002
2019-01-27T07:19:58.046Z,87.573242
2019-01-27T07:21:07.581Z,87.469482
2019-01-27T07:22:17.114Z,87.219238
2019-01-27T07:23:26.643Z,87.115479
2019-01-27T07:24:36.174Z,87.011719
2019-01-27T07:25:45.715Z,86.804199
2019-01-27T07:26:55.222Z,86.804199
2019-01-27T07:28:04.727Z,86.590576
2019-01-27T07:29:14.275Z,86.694336
2019-01-27T07:30:23.895Z,86.590576
2019-01-27T07:31:33.435Z,86.804199
2019-01-27T07:32:42.986Z,86.94458
2019-01-27T07:33:52.523Z,86.94458
2019-01-27T07:35:02.049Z,87.04834
2019-01-27T07:36:11.551Z,87.1521
2019-01-27T07:37:21.116Z,87.255859
2019-01-27T07:38:30.651Z,87.365723
2019-01-27T07:39:40.221Z,87.365723
2019-01-27T07:40:49.787Z,87.469482
2019-01-27T07:41:59.377Z,87.469482
2019-01-27T07:43:08.873Z,87.469482
2019-01-27T07:44:18.394Z,87.677002
2019-01-27T07:45:27.901Z,87.677002
2019-01-27T07:46:37.418Z,87.677002
2019-01-27T07:47:46.944Z,87.677002
2019-01-27T07:48:56.488Z,87.573242
2019-01-27T07:50:06.019Z,87.677002
2019-01-27T07:51:15.572Z,87.573242
2019-01-27T07:52:25.094Z,87.573242
2019-01-27T07:53:34.605Z,87.365723
2019-01-27T07:54:44.172Z,87.115479
2019-01-27T07:55:53.719Z,87.322998
2019-01-27T07:57:03.256Z,87.115479
2019-01-27T07:58:12.773Z,87.219238
2019-01-27T07:59:22.355Z,87.011719
2019-01-27T08:00:31.878Z,87.115479
2019-01-27T08:01:41.407Z,87.115479
2019-01-27T08:02:50.966Z,87.011719
2019-01-27T08:04:00.505Z,86.804199
2019-01-27T08:05:10.053Z,86.907959
2019-01-27T08:06:19.573Z,87.011719
2019-01-27T08:07:29.125Z,86.804199
2019-01-27T08:08:38.659Z,86.907959
2019-01-27T08:09:48.183Z,87.011719
2019-01-27T08:10:57.729Z,87.011719
2019-01-27T08:12:07.271Z,86.907959
2019-01-27T08:13:16.840Z,86.907959
2019-01-27T08:14:26.413Z,87.011719
2019-01-27T08:15:35.930Z,86.694336
2019-01-27T08:16:45.472Z,86.590576
2019-01-27T08:17:54.999Z,86.486816
2019-01-27T08:19:04.537Z,86.383057
2019-01-27T08:20:14.110Z,86.279297
2019-01-27T08:21:23.650Z,86.279297
2019-01-27T08:22:33.161Z,86.071777
2019-01-27T08:23:42.683Z,86.175537
2019-01-27T08:24:52.309Z,86.175537
2019-01-27T08:26:01.836Z,86.175537
2019-01-27T08:27:11.395Z,85.968018
2019-01-27T08:28:20.947Z,85.821533
2019-01-27T08:29:30.556Z,85.925293
2019-01-27T08:30:40.107Z,85.717773
2019-01-27T08:31:49.636Z,85.406494
2019-01-27T08:32:59.176Z,85.15625
2019-01-27T08:34:08.691Z,84.637451
2019-01-27T08:35:18.250Z,84.326172
2019-01-27T08:36:27.761Z,84.283447
2019-01-27T08:37:37.299Z,83.660889
2019-01-27T08:38:46.793Z,83.453369
2019-01-27T08:39:56.347Z,82.788086
2019-01-27T08:41:05.889Z,82.476807
2019-01-27T08:42:15.427Z,82.232666
2019-01-27T08:43:24.956Z,81.921387
2019-01-27T08:44:34.498Z,81.396484
2019-01-27T08:45:44.041Z,81.396484
2019-01-27T08:46:53.571Z,80.944824
2019-01-27T08:48:03.104Z,80.633545
2019-01-27T08:49:12.667Z,80.529785
2019-01-27T08:50:22.198Z,80.322266
2019-01-27T08:51:31.741Z,80.078125
2019-01-27T08:52:41.285Z,79.760742
2019-01-27T08:53:50.805Z,79.974365
2019-01-27T08:55:00.367Z,79.760742
2019-01-27T08:56:09.889Z,79.656982
2019-01-27T08:57:19.427Z,79.974365
2019-01-27T08:58:28.968Z,79.656982
2019-01-27T08:59:38.515Z,79.870605
2019-01-27T09:00:48.052Z,79.760742
2019-01-27T09:01:57.575Z,79.553223
2019-01-27T09:03:07.101Z,79.449463
2019-01-27T09:04:16.633Z,79.345703
2019-01-27T09:05:26.184Z,79.412842
2019-01-27T09:06:35.680Z,79.101562
2019-01-27T09:07:45.192Z,78.997803
2019-01-27T09:08:54.777Z,78.790283
2019-01-27T09:10:04.247Z,78.582764
2019-01-27T09:11:13.835Z,78.582764
2019-01-27T09:12:23.368Z,78.649902
2019-01-27T09:13:32.896Z,78.442383
2019-01-27T09:14:42.422Z,77.923584
2019-01-27T09:15:51.989Z,77.923584
2019-01-27T09:17:01.518Z,77.471924
2019-01-27T09:18:11.063Z,77.264404
2019-01-27T09:19:20.609Z,77.056885
2019-01-27T09:20:30.147Z,77.056885
2019-01-27T09:21:39.657Z,77.056885
2019-01-27T09:22:49.189Z,77.160645
2019-01-27T09:23:58.717Z,77.056885
2019-01-27T09:25:07.232Z,77.264404
2019-01-27T09:26:16.826Z,77.056885
2019-01-27T09:27:26.365Z,77.056885
2019-01-27T09:28:35.867Z,76.745605
2019-01-27T09:29:45.392Z,76.434326
2019-01-27T09:30:54.968Z,76.190186
2019-01-27T09:32:04.526Z,75.982666
2019-01-27T09:33:14.065Z,76.086426
2019-01-27T09:34:23.586Z,75.567627
2019-01-27T09:35:33.186Z,75.671387
2019-01-27T09:36:42.726Z,75.878906
2019-01-27T09:37:52.289Z,75.152588
2019-01-27T09:39:01.800Z,74.810791
2019-01-27T09:40:11.319Z,74.707031
2019-01-27T09:41:20.862Z,74.603271
2019-01-27T09:42:30.423Z,74.395752
2019-01-27T09:43:39.922Z,74.810791
2019-01-27T09:44:49.457Z,74.084473
2019-01-27T09:46:05.336Z,74.151611
2019-01-27T09:47:09.545Z,73.425293
2019-01-27T09:48:19.079Z,73.944092
2019-01-27T09:49:28.626Z,74.047852
2019-01-27T09:50:38.167Z,73.217773
2019-01-27T09:51:47.734Z,73.010254
2019-01-27T09:52:57.267Z,73.840332
2019-01-27T09:54:06.786Z,73.321533
2019-01-27T09:55:16.306Z,72.802734
2019-01-27T09:56:25.875Z,72.698975
2019-01-27T09:57:34.377Z,72.802734
2019-01-27T09:58:43.886Z,72.491455
2019-01-27T09:59:53.451Z,72.387695
2019-01-27T10:01:02.983Z,72.076416
2019-01-27T10:02:12.521Z,72.698975
2019-01-27T10:03:22.100Z,72.595215
2019-01-27T10:04:31.667Z,72.387695
2019-01-27T10:05:41.214Z,72.387695
2019-01-27T10:06:50.770Z,71.972656
2019-01-27T10:08:00.303Z,71.42334
2019-01-27T10:09:09.886Z,71.734619
2019-01-27T10:10:19.408Z,71.112061
2019-01-27T10:11:28.952Z,70.489502
2019-01-27T10:12:38.484Z,70.385742
2019-01-27T10:13:48.049Z,70.489502
2019-01-27T10:14:57.607Z,70.043945
2019-01-27T10:16:07.162Z,69.628906
2019-01-27T10:17:16.676Z,69.421387
2019-01-27T10:18:26.201Z,70.147705
2019-01-27T10:19:35.743Z,69.006348
2019-01-27T10:20:45.298Z,69.18335
2019-01-27T10:21:54.874Z,69.287109
2019-01-27T10:23:04.379Z,68.457031
2019-01-27T10:24:14.044Z,68.768311
2019-01-27T10:25:23.792Z,68.457031
2019-01-27T10:26:33.332Z,68.353271
2019-01-27T10:27:42.902Z,68.87207
2019-01-27T10:28:52.443Z,68.737793
2019-01-27T10:30:02.009Z,68.115234
2019-01-27T10:31:11.585Z,67.285156
2019-01-27T10:32:21.096Z,67.596436
2019-01-27T10:33:30.618Z,67.388916
2019-01-27T10:34:40.150Z,67.254639
2019-01-27T10:35:49.705Z,66.943359
2019-01-27T10:36:59.264Z,67.669678
2019-01-27T10:38:08.779Z,66.601562
2019-01-27T10:39:18.309Z,65.985107
2019-01-27T10:40:27.870Z,66.394043
2019-01-27T10:41:37.415Z,66.05835
2019-01-27T10:42:46.945Z,64.813232
2019-01-27T10:43:56.476Z,65.228271
2019-01-27T10:45:06.015Z,65.539551
2019-01-27T10:46:15.635Z,65.332031
2019-01-27T10:47:25.159Z,65.020752
2019-01-27T10:48:34.660Z,65.643311
2019-01-27T10:49:44.217Z,64.813232
2019-01-27T10:50:53.723Z,65.332031
2019-01-27T10:52:05.499Z,65.124512
2019-01-27T10:53:14.498Z,65.228271
2019-01-27T10:54:25.016Z,64.886475
2019-01-27T10:55:34.546Z,64.27002
2019-01-27T10:56:44.115Z,65.093994
2019-01-27T10:57:53.629Z,64.581299
2019-01-27T10:59:03.130Z,64.709473
2019-01-27T11:00:12.656Z,65.405273
2019-01-27T11:01:22.254Z,63.95874
2019-01-27T11:02:36.618Z,64.093018
2019-01-27T11:03:42.253Z,64.196777
2019-01-27T11:04:51.782Z,64.782715
2019-01-27T11:06:01.325Z,63.647461
2019-01-27T11:07:10.879Z,63.720703
2019-01-27T11:08:20.408Z,63.28125
2019-01-27T11:09:29.939Z,62.17041
2019-01-27T11:10:39.467Z,63.000488
2019-01-27T11:11:49.036Z,62.792969
2019-01-27T11:12:58.555Z,63.311768
2019-01-27T11:14:08.116Z,62.969971
2019-01-27T11:15:17.600Z,62.554932
2019-01-27T11:16:27.138Z,62.249756
2019-01-27T11:17:36.721Z,62.322998
2019-01-27T11:18:46.265Z,61.804199
2019-01-27T11:19:55.775Z,61.700439
2019-01-27T11:21:05.311Z,61.907959
2019-01-27T11:22:14.884Z,61.395264
2019-01-27T11:23:24.406Z,61.187744
2019-01-27T11:24:32.932Z,60.876465
2019-01-27T11:25:42.450Z,60.852051
2019-01-27T11:26:52.106Z,61.260986
2019-01-27T11:28:01.639Z,60.668945
2019-01-27T11:29:11.164Z,60.980225
2019-01-27T11:30:20.664Z,61.883545
2019-01-27T11:31:30.186Z,61.572266
2019-01-27T11:32:39.773Z,61.749268
2019-01-27T11:33:49.307Z,60.510254
2019-01-27T11:34:58.824Z,60.614014
2019-01-27T11:36:08.355Z,60.510254
2019-01-27T11:37:17.935Z,60.717773
2019-01-27T11:38:27.469Z,60.614014
2019-01-27T11:39:37.017Z,59.893799
2019-01-27T11:40:46.654Z,59.893799
2019-01-27T11:41:56.213Z,59.686279
2019-01-27T11:43:05.733Z,60.308838
2019-01-27T11:44:15.251Z,59.997559
2019-01-27T11:45:24.791Z,59.893799
2019-01-27T11:46:34.319Z,59.820557
2019-01-27T11:47:43.904Z,60.229492
2019-01-27T11:48:53.423Z,60.540771
2019-01-27T11:50:02.947Z,61.053467
2019-01-27T11:51:12.462Z,60.540771
2019-01-27T11:52:22.039Z,60.540771
2019-01-27T11:53:31.545Z,60.565186
2019-01-27T11:54:41.064Z,61.499023
2019-01-27T11:55:50.619Z,60.540771
2019-01-27T11:57:00.188Z,60.748291
2019-01-27T11:58:09.705Z,60.26001
2019-01-27T11:59:19.228Z,61.157227
2019-01-27T12:00:28.774Z,60.36377
2019-01-27T12:01:38.285Z,60.876465
2019-01-27T12:02:47.865Z,61.395264
2019-01-27T12:03:57.391Z,60.668945
2019-01-27T12:05:06.913Z,61.364746
2019-01-27T12:06:16.424Z,61.260986
2019-01-27T12:07:25.999Z,60.229492
2019-01-27T12:08:35.520Z,60.748291
2019-01-27T12:09:45.072Z,60.437012
2019-01-27T12:10:54.626Z,60.125732
2019-01-27T12:12:04.276Z,60.644531
2019-01-27T12:13:13.780Z,60.949707
2019-01-27T12:14:23.329Z,60.925293
2019-01-27T12:15:32.850Z,60.406494
2019-01-27T12:16:42.364Z,60.38208
2019-01-27T12:17:51.947Z,59.997559
2019-01-27T12:19:01.521Z,60.174561
2019-01-27T12:20:11.037Z,59.765625
2019-01-27T12:21:20.556Z,59.863281
2019-01-27T12:22:31.112Z,59.143066
2019-01-27T12:23:40.622Z,59.58252
2019-01-27T12:24:51.144Z,59.790039
2019-01-27T12:26:00.696Z,60.205078
2019-01-27T12:27:10.353Z,60.205078
2019-01-27T12:28:19.881Z,60.925293
2019-01-27T12:29:30.375Z,60.406494
2019-01-27T12:30:39.969Z,60.925293
2019-01-27T12:31:49.525Z,60.821533
2019-01-27T12:32:59.114Z,60.821533
2019-01-27T12:34:09.636Z,61.437988
2019-01-27T12:35:19.147Z,61.572266
2019-01-27T12:36:28.655Z,61.572266
2019-01-27T12:37:38.214Z,61.981201
2019-01-27T12:38:47.737Z,62.084961
2019-01-27T12:39:57.331Z,62.188721
2019-01-27T12:41:06.856Z,62.70752
2019-01-27T12:42:16.372Z,62.60376
2019-01-27T12:43:25.946Z,62.5
2019-01-27T12:44:35.489Z,62.60376
2019-01-27T12:45:46.042Z,63.323975
2019-01-27T12:46:54.518Z,63.220215
2019-01-27T12:48:04.078Z,62.811279
2019-01-27T12:49:13.584Z,63.043213
2019-01-27T12:50:23.109Z,63.769531
2019-01-27T12:51:32.645Z,63.562012
2019-01-27T12:52:42.301Z,63.562012
2019-01-27T12:53:51.835Z,63.635254
2019-01-27T12:55:01.394Z,63.323975
2019-01-27T12:56:10.952Z,63.531494
2019-01-27T12:57:20.511Z,63.635254
2019-01-27T12:58:30.060Z,63.739014
2019-01-27T12:59:39.583Z,63.635254
2019-01-27T13:00:49.123Z,63.635254
2019-01-27T13:01:58.652Z,63.635254
2019-01-27T13:03:08.242Z,63.739014
2019-01-27T13:04:17.760Z,63.116455
2019-01-27T13:05:27.315Z,63.531494
2019-01-27T13:06:36.830Z,63.220215
2019-01-27T13:07:46.434Z,63.012695
2019-01-27T13:08:55.947Z,62.915039
2019-01-27T13:10:05.484Z,62.884521
2019-01-27T13:11:15.070Z,63.092041
2019-01-27T13:12:24.587Z,62.365723
2019-01-27T13:13:34.140Z,62.884521
2019-01-27T13:14:43.666Z,62.780762
2019-01-27T13:15:53.189Z,62.573242